sensor_id;sensor_type;location;lat;lon;timestamp;pressure;altitude;pressure_sealevel;temperature;humidity
66396;BME280;72184;51.378;-1.342;2023-09-12T00:01:12;100065.22;;;24.36;43.17
66396;BME280;72184;51.378;-1.342;2023-09-12T00:03:39;100062.51;;;24.34;43.17
66396;BME280;72184;51.378;-1.342;2023-09-12T00:06:07;100063.66;;;24.10;43.10
66396;BME280;72184;51.378;-1.342;2023-09-12T00:08:35;100063.28;;;24.29;43.14
66396;BME280;72184;51.378;-1.342;2023-09-12T00:11:04;100059.09;;;24.27;43.24
66396;BME280;72184;51.378;-1.342;2023-09-12T00:13:32;100061.28;;;24.53;43.24
66396;BME280;72184;51.378;-1.342;2023-09-12T00:16:00;100054.88;;;24.25;43.23
66396;BME280;72184;51.378;-1.342;2023-09-12T00:18:27;100057.40;;;24.25;43.27
66396;BME280;72184;51.378;-1.342;2023-09-12T00:20:55;100056.09;;;24.50;43.15
66396;BME280;72184;51.378;-1.342;2023-09-12T00:23:23;100055.81;;;24.23;43.13
66396;BME280;72184;51.378;-1.342;2023-09-12T00:25:51;100051.84;;;24.22;43.15
66396;BME280;72184;51.378;-1.342;2023-09-12T00:28:19;100052.05;;;24.47;43.08
66396;BME280;72184;51.378;-1.342;2023-09-12T00:30:47;100050.63;;;24.18;43.11
66396;BME280;72184;51.378;-1.342;2023-09-12T00:33:14;100053.78;;;24.15;43.13
66396;BME280;72184;51.378;-1.342;2023-09-12T00:35:44;100056.95;;;24.15;43.08
66396;BME280;72184;51.378;-1.342;2023-09-12T00:38:11;100055.42;;;24.40;43.14
66396;BME280;72184;51.378;-1.342;2023-09-12T00:40:39;100057.85;;;24.12;43.08
66396;BME280;72184;51.378;-1.342;2023-09-12T00:43:07;100059.89;;;24.10;43.08
66396;BME280;72184;51.378;-1.342;2023-09-12T00:45:35;100058.83;;;24.08;43.11
66396;BME280;72184;51.378;-1.342;2023-09-12T00:48:04;100060.87;;;24.06;43.08
66396;BME280;72184;51.378;-1.342;2023-09-12T00:50:33;100063.24;;;24.32;43.12
66396;BME280;72184;51.378;-1.342;2023-09-12T00:53:01;100063.94;;;24.03;43.22
66396;BME280;72184;51.378;-1.342;2023-09-12T00:55:32;100064.40;;;24.00;43.23
66396;BME280;72184;51.378;-1.342;2023-09-12T00:58:01;100060.47;;;23.99;43.20
66396;BME280;72184;51.378;-1.342;2023-09-12T01:00:29;100059.36;;;23.97;43.16
66396;BME280;72184;51.378;-1.342;2023-09-12T01:02:57;100058.83;;;24.22;43.18
66396;BME280;72184;51.378;-1.342;2023-09-12T01:05:25;100054.70;;;23.94;43.22
66396;BME280;72184;51.378;-1.342;2023-09-12T01:07:53;100051.14;;;24.20;43.23
66396;BME280;72184;51.378;-1.342;2023-09-12T01:10:20;100045.44;;;24.17;43.30
66396;BME280;72184;51.378;-1.342;2023-09-12T01:12:48;100045.69;;;24.16;43.29
66396;BME280;72184;51.378;-1.342;2023-09-12T01:15:16;100046.41;;;24.15;43.31
66396;BME280;72184;51.378;-1.342;2023-09-12T01:17:45;100044.80;;;23.85;43.32
66396;BME280;72184;51.378;-1.342;2023-09-12T01:20:16;100045.47;;;24.10;43.35
66396;BME280;72184;51.378;-1.342;2023-09-12T01:22:56;100046.99;;;24.08;43.38
66396;BME280;72184;51.378;-1.342;2023-09-12T01:25:49;100047.60;;;24.29;43.41
66396;BME280;72184;51.378;-1.342;2023-09-12T01:28:29;100048.47;;;24.25;43.49
66396;BME280;72184;51.378;-1.342;2023-09-12T01:30:58;100046.67;;;24.01;43.51
66396;BME280;72184;51.378;-1.342;2023-09-12T01:33:28;100046.56;;;24.00;43.50
66396;BME280;72184;51.378;-1.342;2023-09-12T01:35:55;100046.85;;;24.19;43.51
66396;BME280;72184;51.378;-1.342;2023-09-12T01:38:23;100047.01;;;24.17;43.53
66396;BME280;72184;51.378;-1.342;2023-09-12T01:40:53;100045.99;;;23.93;43.51
66396;BME280;72184;51.378;-1.342;2023-09-12T01:43:24;100048.04;;;23.90;43.57
66396;BME280;72184;51.378;-1.342;2023-09-12T01:45:54;100048.56;;;23.88;43.57
66396;BME280;72184;51.378;-1.342;2023-09-12T01:48:25;100049.21;;;23.86;43.60
66396;BME280;72184;51.378;-1.342;2023-09-12T01:50:54;100051.94;;;23.86;43.60
66396;BME280;72184;51.378;-1.342;2023-09-12T01:53:21;100050.61;;;23.84;43.60
66396;BME280;72184;51.378;-1.342;2023-09-12T01:55:49;100049.42;;;24.04;43.63
66396;BME280;72184;51.378;-1.342;2023-09-12T01:58:18;100048.82;;;23.99;43.74
66396;BME280;72184;51.378;-1.342;2023-09-12T02:00:45;100047.55;;;23.97;43.71
66396;BME280;72184;51.378;-1.342;2023-09-12T02:03:13;100048.90;;;23.95;43.77
66396;BME280;72184;51.378;-1.342;2023-09-12T02:05:41;100047.88;;;23.94;43.82
66396;BME280;72184;51.378;-1.342;2023-09-12T02:08:09;100044.80;;;23.43;43.87
66396;BME280;72184;51.378;-1.342;2023-09-12T02:10:37;100042.49;;;23.67;43.89
66396;BME280;72184;51.378;-1.342;2023-09-12T02:13:05;100041.91;;;23.66;43.87
66396;BME280;72184;51.378;-1.342;2023-09-12T02:15:33;100042.51;;;23.87;43.95
66396;BME280;72184;51.378;-1.342;2023-09-12T02:18:01;100048.03;;;23.64;43.97
66396;BME280;72184;51.378;-1.342;2023-09-12T02:20:29;100047.44;;;23.85;43.97
66396;BME280;72184;51.378;-1.342;2023-09-12T02:22:56;100046.21;;;23.84;43.99
66396;BME280;72184;51.378;-1.342;2023-09-12T02:25:24;100044.98;;;23.60;44.24
66396;BME280;72184;51.378;-1.342;2023-09-12T02:27:52;100045.75;;;23.56;44.17
66396;BME280;72184;51.378;-1.342;2023-09-12T02:30:20;100046.07;;;23.54;44.21
66396;BME280;72184;51.378;-1.342;2023-09-12T02:32:48;100045.23;;;23.75;44.23
66396;BME280;72184;51.378;-1.342;2023-09-12T02:35:16;100046.68;;;23.74;44.30
66396;BME280;72184;51.378;-1.342;2023-09-12T02:37:43;100044.19;;;23.72;44.40
66396;BME280;72184;51.378;-1.342;2023-09-12T02:40:11;100044.62;;;23.48;44.45
66396;BME280;72184;51.378;-1.342;2023-09-12T02:42:38;100046.22;;;23.67;44.50
66396;BME280;72184;51.378;-1.342;2023-09-12T02:45:06;100046.49;;;23.64;44.61
66396;BME280;72184;51.378;-1.342;2023-09-12T02:47:34;100048.89;;;23.41;44.71
66396;BME280;72184;51.378;-1.342;2023-09-12T02:50:01;100049.33;;;23.41;44.70
66396;BME280;72184;51.378;-1.342;2023-09-12T02:52:29;100045.59;;;23.61;44.79
66396;BME280;72184;51.378;-1.342;2023-09-12T02:54:56;100046.47;;;23.60;44.76
66396;BME280;72184;51.378;-1.342;2023-09-12T02:57:23;100044.91;;;23.59;44.75
66396;BME280;72184;51.378;-1.342;2023-09-12T02:59:49;100044.97;;;23.87;44.71
66396;BME280;72184;51.378;-1.342;2023-09-12T03:02:16;100044.12;;;23.59;44.68
66396;BME280;72184;51.378;-1.342;2023-09-12T03:04:43;100043.38;;;23.57;44.80
66396;BME280;72184;51.378;-1.342;2023-09-12T03:07:11;100046.54;;;23.55;44.82
66396;BME280;72184;51.378;-1.342;2023-09-12T03:09:38;100044.20;;;23.53;44.83
66396;BME280;72184;51.378;-1.342;2023-09-12T03:12:06;100044.72;;;23.51;44.86
66396;BME280;72184;51.378;-1.342;2023-09-12T03:14:34;100040.89;;;23.48;45.06
66396;BME280;72184;51.378;-1.342;2023-09-12T03:17:02;100040.90;;;23.47;45.10
66396;BME280;72184;51.378;-1.342;2023-09-12T03:19:30;100038.84;;;23.44;45.12
66396;BME280;72184;51.378;-1.342;2023-09-12T03:21:58;100037.72;;;23.41;45.24
66396;BME280;72184;51.378;-1.342;2023-09-12T03:24:25;100039.41;;;23.39;45.30
66396;BME280;72184;51.378;-1.342;2023-09-12T03:26:53;100038.02;;;23.36;45.42
66396;BME280;72184;51.378;-1.342;2023-09-12T03:29:21;100036.75;;;23.34;45.43
66396;BME280;72184;51.378;-1.342;2023-09-12T03:31:48;100033.90;;;23.32;45.42
66396;BME280;72184;51.378;-1.342;2023-09-12T03:34:16;100030.46;;;23.30;45.51
66396;BME280;72184;51.378;-1.342;2023-09-12T03:36:43;100027.55;;;23.30;45.44
66396;BME280;72184;51.378;-1.342;2023-09-12T03:39:10;100026.53;;;23.28;45.66
66396;BME280;72184;51.378;-1.342;2023-09-12T03:41:37;100025.12;;;23.24;45.50
66396;BME280;72184;51.378;-1.342;2023-09-12T03:44:04;100027.40;;;23.25;45.53
66396;BME280;72184;51.378;-1.342;2023-09-12T03:46:32;100027.14;;;23.22;45.63
66396;BME280;72184;51.378;-1.342;2023-09-12T03:49:00;100027.37;;;23.21;45.72
66396;BME280;72184;51.378;-1.342;2023-09-12T03:51:26;100029.45;;;23.20;45.62
66396;BME280;72184;51.378;-1.342;2023-09-12T03:53:53;100030.44;;;22.97;45.58
66396;BME280;72184;51.378;-1.342;2023-09-12T03:56:20;100027.19;;;23.18;45.47
66396;BME280;72184;51.378;-1.342;2023-09-12T03:58:47;100026.14;;;23.13;45.62
66396;BME280;72184;51.378;-1.342;2023-09-12T04:01:14;100024.50;;;23.12;45.50
66396;BME280;72184;51.378;-1.342;2023-09-12T04:03:41;100023.91;;;23.12;45.46
66396;BME280;72184;51.378;-1.342;2023-09-12T04:06:09;100025.67;;;23.12;45.39
66396;BME280;72184;51.378;-1.342;2023-09-12T04:08:36;100026.05;;;23.11;45.44
66396;BME280;72184;51.378;-1.342;2023-09-12T04:11:03;100024.36;;;22.85;45.47
66396;BME280;72184;51.378;-1.342;2023-09-12T04:13:30;100020.90;;;23.30;45.59
66396;BME280;72184;51.378;-1.342;2023-09-12T04:15:57;100019.67;;;23.00;45.69
66396;BME280;72184;51.378;-1.342;2023-09-12T04:18:24;100020.46;;;23.25;45.72
66396;BME280;72184;51.378;-1.342;2023-09-12T04:20:50;100023.43;;;22.96;45.72
66396;BME280;72184;51.378;-1.342;2023-09-12T04:23:17;100021.82;;;22.93;45.84
66396;BME280;72184;51.378;-1.342;2023-09-12T04:25:46;100021.93;;;22.92;45.73
66396;BME280;72184;51.378;-1.342;2023-09-12T04:28:13;100019.21;;;22.92;45.98
66396;BME280;72184;51.378;-1.342;2023-09-12T04:30:41;100018.21;;;22.91;45.91
66396;BME280;72184;51.378;-1.342;2023-09-12T04:33:08;100016.63;;;22.89;45.90
66396;BME280;72184;51.378;-1.342;2023-09-12T04:35:35;100015.22;;;22.85;45.98
66396;BME280;72184;51.378;-1.342;2023-09-12T04:38:03;100011.39;;;22.85;45.86
66396;BME280;72184;51.378;-1.342;2023-09-12T04:40:31;100011.78;;;23.11;45.84
66396;BME280;72184;51.378;-1.342;2023-09-12T04:42:58;100012.12;;;22.84;45.76
66396;BME280;72184;51.378;-1.342;2023-09-12T04:45:25;100010.45;;;23.31;45.69
66396;BME280;72184;51.378;-1.342;2023-09-12T04:47:52;100013.78;;;23.08;45.54
66396;BME280;72184;51.378;-1.342;2023-09-12T04:50:19;100014.48;;;22.78;45.42
66396;BME280;72184;51.378;-1.342;2023-09-12T04:52:46;100017.68;;;22.77;45.34
66396;BME280;72184;51.378;-1.342;2023-09-12T04:55:13;100015.90;;;22.72;45.29
66396;BME280;72184;51.378;-1.342;2023-09-12T04:57:40;100016.15;;;22.67;45.41
66396;BME280;72184;51.378;-1.342;2023-09-12T05:00:08;100014.54;;;22.61;45.37
66396;BME280;72184;51.378;-1.342;2023-09-12T05:02:36;100012.02;;;23.09;45.26
66396;BME280;72184;51.378;-1.342;2023-09-12T05:05:03;100012.87;;;22.60;45.18
66396;BME280;72184;51.378;-1.342;2023-09-12T05:07:30;100009.11;;;22.84;45.25
66396;BME280;72184;51.378;-1.342;2023-09-12T05:09:57;100006.91;;;22.80;45.31
66396;BME280;72184;51.378;-1.342;2023-09-12T05:12:25;100009.78;;;23.00;45.37
66396;BME280;72184;51.378;-1.342;2023-09-12T05:14:52;100010.89;;;22.76;45.46
66396;BME280;72184;51.378;-1.342;2023-09-12T05:17:19;100011.80;;;22.48;45.53
66396;BME280;72184;51.378;-1.342;2023-09-12T05:19:46;100014.50;;;22.94;45.62
66396;BME280;72184;51.378;-1.342;2023-09-12T05:22:13;100017.05;;;22.44;45.60
66396;BME280;72184;51.378;-1.342;2023-09-12T05:24:40;100018.95;;;22.91;45.57
66396;BME280;72184;51.378;-1.342;2023-09-12T05:27:08;100017.29;;;22.42;45.70
66396;BME280;72184;51.378;-1.342;2023-09-12T05:29:35;100019.67;;;22.63;45.75
66396;BME280;72184;51.378;-1.342;2023-09-12T05:32:02;100021.33;;;22.35;45.83
66396;BME280;72184;51.378;-1.342;2023-09-12T05:34:30;100021.36;;;22.82;46.01
66396;BME280;72184;51.378;-1.342;2023-09-12T05:36:58;100015.09;;;22.57;45.81
66396;BME280;72184;51.378;-1.342;2023-09-12T05:39:25;100015.95;;;22.76;45.80
66396;BME280;72184;51.378;-1.342;2023-09-12T05:41:52;100016.19;;;22.72;45.78
66396;BME280;72184;51.378;-1.342;2023-09-12T05:44:19;100020.89;;;22.70;45.66
66396;BME280;72184;51.378;-1.342;2023-09-12T05:46:46;100024.45;;;22.20;45.48
66396;BME280;72184;51.378;-1.342;2023-09-12T05:49:14;100027.91;;;22.44;45.48
66396;BME280;72184;51.378;-1.342;2023-09-12T05:51:42;100029.76;;;22.41;45.41
66396;BME280;72184;51.378;-1.342;2023-09-12T05:54:10;100033.47;;;22.39;45.56
66396;BME280;72184;51.378;-1.342;2023-09-12T05:56:38;100035.38;;;22.36;45.54
66396;BME280;72184;51.378;-1.342;2023-09-12T05:59:05;100038.39;;;22.34;45.48
66396;BME280;72184;51.378;-1.342;2023-09-12T06:01:33;100042.70;;;22.55;45.60
66396;BME280;72184;51.378;-1.342;2023-09-12T06:03:59;100043.41;;;22.54;45.59
66396;BME280;72184;51.378;-1.342;2023-09-12T06:06:27;100042.94;;;22.52;45.64
66396;BME280;72184;51.378;-1.342;2023-09-12T06:08:54;100043.52;;;22.50;45.78
66396;BME280;72184;51.378;-1.342;2023-09-12T06:11:21;100043.26;;;22.48;45.86
66396;BME280;72184;51.378;-1.342;2023-09-12T06:13:48;100044.33;;;22.24;45.95
66396;BME280;72184;51.378;-1.342;2023-09-12T06:16:15;100046.50;;;22.46;46.03
66396;BME280;72184;51.378;-1.342;2023-09-12T06:18:42;100046.42;;;22.46;46.02
66396;BME280;72184;51.378;-1.342;2023-09-12T06:21:09;100045.77;;;22.46;46.16
66396;BME280;72184;51.378;-1.342;2023-09-12T06:23:36;100046.02;;;22.46;46.25
66396;BME280;72184;51.378;-1.342;2023-09-12T06:26:04;100051.88;;;22.46;46.40
66396;BME280;72184;51.378;-1.342;2023-09-12T06:28:31;100056.74;;;22.24;46.47
66396;BME280;72184;51.378;-1.342;2023-09-12T06:30:59;100059.32;;;22.48;46.44
66396;BME280;72184;51.378;-1.342;2023-09-12T06:33:26;100061.08;;;22.50;46.46
66396;BME280;72184;51.378;-1.342;2023-09-12T06:35:54;100064.39;;;22.51;46.53
66396;BME280;72184;51.378;-1.342;2023-09-12T06:38:22;100065.05;;;22.52;46.49
66396;BME280;72184;51.378;-1.342;2023-09-12T06:40:50;100065.03;;;22.32;46.47
66396;BME280;72184;51.378;-1.342;2023-09-12T06:43:17;100067.10;;;22.56;46.55
66396;BME280;72184;51.378;-1.342;2023-09-12T06:45:45;100065.51;;;22.55;46.74
66396;BME280;72184;51.378;-1.342;2023-09-12T06:48:13;100064.93;;;22.56;46.96
66396;BME280;72184;51.378;-1.342;2023-09-12T06:50:40;100064.63;;;22.07;46.73
66396;BME280;72184;51.378;-1.342;2023-09-12T06:53:08;100065.11;;;22.36;46.68
66396;BME280;72184;51.378;-1.342;2023-09-12T06:55:35;100064.44;;;22.39;46.62
66396;BME280;72184;51.378;-1.342;2023-09-12T06:58:02;100061.13;;;22.43;46.68
66396;BME280;72184;51.378;-1.342;2023-09-12T07:00:30;100059.99;;;22.64;47.09
66396;BME280;72184;51.378;-1.342;2023-09-12T07:02:57;100062.24;;;22.64;46.96
66396;BME280;72184;51.378;-1.342;2023-09-12T07:05:25;100061.95;;;22.67;47.11
66396;BME280;72184;51.378;-1.342;2023-09-12T07:07:52;100065.39;;;22.21;46.83
66396;BME280;72184;51.378;-1.342;2023-09-12T07:10:20;100068.89;;;22.74;46.80
66396;BME280;72184;51.378;-1.342;2023-09-12T07:12:48;100069.96;;;22.78;46.80
66396;BME280;72184;51.378;-1.342;2023-09-12T07:15:16;100069.47;;;22.59;46.70
66396;BME280;72184;51.378;-1.342;2023-09-12T07:17:44;100071.06;;;22.85;46.83
66396;BME280;72184;51.378;-1.342;2023-09-12T07:20:11;100073.85;;;22.39;46.66
66396;BME280;72184;51.378;-1.342;2023-09-12T07:22:39;100074.88;;;22.91;46.79
66396;BME280;72184;51.378;-1.342;2023-09-12T07:25:07;100076.59;;;22.93;46.87
66396;BME280;72184;51.378;-1.342;2023-09-12T07:27:35;100078.78;;;22.73;46.97
66396;BME280;72184;51.378;-1.342;2023-09-12T07:30:03;100081.63;;;22.50;47.04
66396;BME280;72184;51.378;-1.342;2023-09-12T07:32:30;100084.86;;;23.03;46.86
66396;BME280;72184;51.378;-1.342;2023-09-12T07:34:58;100090.31;;;23.05;46.70
66396;BME280;72184;51.378;-1.342;2023-09-12T07:37:26;100090.89;;;23.08;46.59
66396;BME280;72184;51.378;-1.342;2023-09-12T07:39:54;100090.71;;;22.62;46.63
66396;BME280;72184;51.378;-1.342;2023-09-12T07:42:22;100091.69;;;23.14;46.94
66396;BME280;72184;51.378;-1.342;2023-09-12T07:44:50;100091.37;;;23.18;46.78
66396;BME280;72184;51.378;-1.342;2023-09-12T07:47:18;100095.53;;;22.73;46.85
66396;BME280;72184;51.378;-1.342;2023-09-12T07:49:46;100099.08;;;22.76;47.17
66396;BME280;72184;51.378;-1.342;2023-09-12T07:52:20;100103.03;;;22.79;47.10
66396;BME280;72184;51.378;-1.342;2023-09-12T07:54:49;100102.42;;;22.83;47.04
66396;BME280;72184;51.378;-1.342;2023-09-12T07:57:17;100100.75;;;23.14;47.33
66396;BME280;72184;51.378;-1.342;2023-09-12T07:59:43;100104.80;;;23.17;47.25
66396;BME280;72184;51.378;-1.342;2023-09-12T08:02:10;100110.42;;;22.93;47.00
66396;BME280;72184;51.378;-1.342;2023-09-12T08:04:37;100113.19;;;23.23;47.21
66396;BME280;72184;51.378;-1.342;2023-09-12T08:07:05;100113.51;;;23.01;47.27
66396;BME280;72184;51.378;-1.342;2023-09-12T08:09:48;100113.65;;;23.04;47.01
66396;BME280;72184;51.378;-1.342;2023-09-12T08:12:16;100111.88;;;23.56;47.08
66396;BME280;72184;51.378;-1.342;2023-09-12T08:14:44;100113.37;;;23.10;47.03
66396;BME280;72184;51.378;-1.342;2023-09-12T08:17:12;100114.21;;;23.14;47.00
66396;BME280;72184;51.378;-1.342;2023-09-12T08:19:40;100113.71;;;23.18;47.15
66396;BME280;72184;51.378;-1.342;2023-09-12T08:22:09;100110.26;;;23.24;47.10
66396;BME280;72184;51.378;-1.342;2023-09-12T08:24:37;100110.64;;;23.54;46.97
66396;BME280;72184;51.378;-1.342;2023-09-12T08:27:05;100111.55;;;23.30;46.98
66396;BME280;72184;51.378;-1.342;2023-09-12T08:29:33;100112.61;;;23.33;46.85
66396;BME280;72184;51.378;-1.342;2023-09-12T08:32:00;100114.61;;;23.37;47.11
66396;BME280;72184;51.378;-1.342;2023-09-12T08:34:28;100115.03;;;23.40;46.94
66396;BME280;72184;51.378;-1.342;2023-09-12T08:36:55;100115.51;;;23.41;46.78
66396;BME280;72184;51.378;-1.342;2023-09-12T08:39:24;100117.53;;;23.45;46.54
66396;BME280;72184;51.378;-1.342;2023-09-12T08:41:53;100118.47;;;23.48;46.53
66396;BME280;72184;51.378;-1.342;2023-09-12T08:44:21;100121.40;;;23.53;46.47
66396;BME280;72184;51.378;-1.342;2023-09-12T08:46:48;100116.26;;;23.58;46.44
66396;BME280;72184;51.378;-1.342;2023-09-12T08:49:16;100117.47;;;23.62;46.14
66396;BME280;72184;51.378;-1.342;2023-09-12T08:51:43;100119.04;;;23.63;45.96
66396;BME280;72184;51.378;-1.342;2023-09-12T08:54:10;100122.83;;;23.66;46.01
66396;BME280;72184;51.378;-1.342;2023-09-12T08:56:40;100122.77;;;23.68;45.90
66396;BME280;72184;51.378;-1.342;2023-09-12T08:59:09;100122.97;;;23.70;45.67
66396;BME280;72184;51.378;-1.342;2023-09-12T09:01:37;100119.79;;;23.50;45.70
66396;BME280;72184;51.378;-1.342;2023-09-12T09:04:05;100118.24;;;23.74;45.88
66396;BME280;72184;51.378;-1.342;2023-09-12T09:06:33;100116.48;;;23.77;45.86
66396;BME280;72184;51.378;-1.342;2023-09-12T09:09:02;100117.70;;;23.58;45.82
66396;BME280;72184;51.378;-1.342;2023-09-12T09:11:31;100121.05;;;23.84;45.85
66396;BME280;72184;51.378;-1.342;2023-09-12T09:13:58;100119.49;;;23.88;45.82
66396;BME280;72184;51.378;-1.342;2023-09-12T09:16:25;100119.88;;;23.92;45.67
66396;BME280;72184;51.378;-1.342;2023-09-12T09:18:55;100120.11;;;23.95;45.55
66396;BME280;72184;51.378;-1.342;2023-09-12T09:21:25;100119.09;;;23.99;45.61
66396;BME280;72184;51.378;-1.342;2023-09-12T09:23:53;100118.58;;;23.80;45.55
66396;BME280;72184;51.378;-1.342;2023-09-12T09:26:21;100121.93;;;24.07;45.76
66396;BME280;72184;51.378;-1.342;2023-09-12T09:29:03;100122.18;;;24.11;45.54
66396;BME280;72184;51.378;-1.342;2023-09-12T09:31:30;100126.63;;;24.18;45.64
66396;BME280;72184;51.378;-1.342;2023-09-12T09:33:58;100127.51;;;23.75;45.39
66396;BME280;72184;51.378;-1.342;2023-09-12T09:36:26;100123.15;;;24.05;44.84
66396;BME280;72184;51.378;-1.342;2023-09-12T09:38:54;100125.62;;;24.32;45.02
66396;BME280;72184;51.378;-1.342;2023-09-12T09:41:21;100127.41;;;24.13;44.99
66396;BME280;72184;51.378;-1.342;2023-09-12T09:43:50;100122.65;;;23.91;44.98
66396;BME280;72184;51.378;-1.342;2023-09-12T09:46:17;100118.86;;;24.20;44.56
66396;BME280;72184;51.378;-1.342;2023-09-12T09:48:49;100121.04;;;23.95;44.43
66396;BME280;72184;51.378;-1.342;2023-09-12T09:51:17;100120.16;;;24.47;44.24
66396;BME280;72184;51.378;-1.342;2023-09-12T09:53:45;100118.60;;;24.49;44.46
66396;BME280;72184;51.378;-1.342;2023-09-12T09:56:14;100117.75;;;24.53;44.49
66396;BME280;72184;51.378;-1.342;2023-09-12T09:58:46;100114.36;;;24.56;44.35
66396;BME280;72184;51.378;-1.342;2023-09-12T10:01:17;100111.09;;;24.37;44.35
66396;BME280;72184;51.378;-1.342;2023-09-12T10:03:46;100106.83;;;24.41;44.27
66396;BME280;72184;51.378;-1.342;2023-09-12T10:06:16;100104.78;;;24.44;44.55
66396;BME280;72184;51.378;-1.342;2023-09-12T10:08:45;100108.31;;;24.73;44.48
66396;BME280;72184;51.378;-1.342;2023-09-12T10:11:15;100107.41;;;24.57;44.75
66396;BME280;72184;51.378;-1.342;2023-09-12T10:13:49;100105.91;;;24.64;44.70
66396;BME280;72184;51.378;-1.342;2023-09-12T10:16:17;100105.61;;;24.71;44.77
66396;BME280;72184;51.378;-1.342;2023-09-12T10:18:58;100104.84;;;24.52;44.22
66396;BME280;72184;51.378;-1.342;2023-09-12T10:21:29;100105.25;;;24.59;43.93
66396;BME280;72184;51.378;-1.342;2023-09-12T10:23:58;100103.26;;;24.64;43.50
66396;BME280;72184;51.378;-1.342;2023-09-12T10:26:27;100104.86;;;24.69;43.70
66396;BME280;72184;51.378;-1.342;2023-09-12T10:28:54;100103.93;;;24.73;43.31
66396;BME280;72184;51.378;-1.342;2023-09-12T10:31:22;100100.23;;;24.76;43.67
66396;BME280;72184;51.378;-1.342;2023-09-12T10:33:51;100099.20;;;24.79;43.72
66396;BME280;72184;51.378;-1.342;2023-09-12T10:36:19;100098.92;;;24.61;44.00
66396;BME280;72184;51.378;-1.342;2023-09-12T10:38:48;100097.55;;;24.88;43.94
66396;BME280;72184;51.378;-1.342;2023-09-12T10:41:16;100097.80;;;24.94;44.02
66396;BME280;72184;51.378;-1.342;2023-09-12T10:43:44;100098.07;;;24.78;43.50
66396;BME280;72184;51.378;-1.342;2023-09-12T10:46:12;100096.97;;;24.85;44.28
66396;BME280;72184;51.378;-1.342;2023-09-12T10:48:39;100096.34;;;24.92;43.44
66396;BME280;72184;51.378;-1.342;2023-09-12T10:51:08;100095.15;;;25.20;43.13
66396;BME280;72184;51.378;-1.342;2023-09-12T10:53:36;100091.75;;;25.04;43.34
66396;BME280;72184;51.378;-1.342;2023-09-12T10:56:16;100091.67;;;25.32;43.39
66396;BME280;72184;51.378;-1.342;2023-09-12T10:59:16;100091.88;;;25.17;43.14
66396;BME280;72184;51.378;-1.342;2023-09-12T11:01:44;100091.61;;;25.43;42.07
66396;BME280;72184;51.378;-1.342;2023-09-12T11:04:44;100092.35;;;25.48;42.47
66396;BME280;72184;51.378;-1.342;2023-09-12T11:07:30;100091.28;;;25.08;42.63
66396;BME280;72184;51.378;-1.342;2023-09-12T11:10:30;100088.96;;;25.32;41.54
66396;BME280;72184;51.378;-1.342;2023-09-12T11:12:58;100090.61;;;25.38;42.72
66396;BME280;72184;51.378;-1.342;2023-09-12T11:15:27;100093.93;;;25.21;42.33
66396;BME280;72184;51.378;-1.342;2023-09-12T11:18:02;100096.18;;;25.69;42.64
66396;BME280;72184;51.378;-1.342;2023-09-12T11:21:02;100094.07;;;25.73;42.00
66396;BME280;72184;51.378;-1.342;2023-09-12T11:23:30;100090.67;;;25.58;42.58
66396;BME280;72184;51.378;-1.342;2023-09-12T11:26:05;100094.34;;;25.85;41.84
66396;BME280;72184;51.378;-1.342;2023-09-12T11:28:34;100096.00;;;25.46;42.09
66396;BME280;72184;51.378;-1.342;2023-09-12T11:31:01;100095.38;;;25.53;42.45
66396;BME280;72184;51.378;-1.342;2023-09-12T11:33:29;100097.51;;;25.58;42.41
66396;BME280;72184;51.378;-1.342;2023-09-12T11:35:59;100099.67;;;25.86;42.55
66396;BME280;72184;51.378;-1.342;2023-09-12T11:38:27;100096.50;;;25.68;42.26
66396;BME280;72184;51.378;-1.342;2023-09-12T11:40:55;100097.35;;;25.71;41.59
66396;BME280;72184;51.378;-1.342;2023-09-12T11:43:24;100094.74;;;25.73;41.59
66396;BME280;72184;51.378;-1.342;2023-09-12T11:45:53;100091.09;;;25.96;41.94
66396;BME280;72184;51.378;-1.342;2023-09-12T11:48:21;100090.54;;;25.73;41.81
66396;BME280;72184;51.378;-1.342;2023-09-12T11:50:51;100090.52;;;25.73;41.79
66396;BME280;72184;51.378;-1.342;2023-09-12T11:53:21;100092.45;;;25.71;41.82
66396;BME280;72184;51.378;-1.342;2023-09-12T11:55:51;100095.48;;;25.71;41.05
66396;BME280;72184;51.378;-1.342;2023-09-12T11:58:20;100096.72;;;25.69;41.17
66396;BME280;72184;51.378;-1.342;2023-09-12T12:00:50;100096.11;;;25.66;41.10
66396;BME280;72184;51.378;-1.342;2023-09-12T12:03:19;100099.05;;;25.63;41.01
66396;BME280;72184;51.378;-1.342;2023-09-12T12:05:47;100098.28;;;25.34;41.12
66396;BME280;72184;51.378;-1.342;2023-09-12T12:08:16;100102.85;;;25.59;41.04
66396;BME280;72184;51.378;-1.342;2023-09-12T12:10:49;100103.70;;;25.52;41.03
66396;BME280;72184;51.378;-1.342;2023-09-12T12:13:18;100101.31;;;25.48;41.11
66396;BME280;72184;51.378;-1.342;2023-09-12T12:15:46;100099.97;;;25.45;41.45
66396;BME280;72184;51.378;-1.342;2023-09-12T12:18:14;100098.85;;;25.43;41.55
66396;BME280;72184;51.378;-1.342;2023-09-12T12:20:42;100100.12;;;25.42;41.73
66396;BME280;72184;51.378;-1.342;2023-09-12T12:23:10;100096.60;;;25.42;42.03
66396;BME280;72184;51.378;-1.342;2023-09-12T12:25:38;100095.26;;;25.41;41.79
66396;BME280;72184;51.378;-1.342;2023-09-12T12:28:06;100094.40;;;25.63;41.60
66396;BME280;72184;51.378;-1.342;2023-09-12T12:30:35;100093.04;;;25.40;41.63
66396;BME280;72184;51.378;-1.342;2023-09-12T12:33:07;100096.99;;;25.62;41.97
66396;BME280;72184;51.378;-1.342;2023-09-12T12:35:35;100097.43;;;25.41;41.67
66396;BME280;72184;51.378;-1.342;2023-09-12T12:38:03;100100.36;;;25.40;41.75
66396;BME280;72184;51.378;-1.342;2023-09-12T12:40:31;100102.62;;;25.39;41.87
66396;BME280;72184;51.378;-1.342;2023-09-12T12:42:58;100100.46;;;25.82;42.02
66396;BME280;72184;51.378;-1.342;2023-09-12T12:45:26;100101.35;;;25.56;42.06
66396;BME280;72184;51.378;-1.342;2023-09-12T12:47:57;100098.40;;;25.29;42.52